createdAt,value
2022-11-24T00:01:21.236Z,2.81
2022-11-24T00:04:04.899Z,3.07
2022-11-24T00:06:34.797Z,3.03
2022-11-24T00:09:03.630Z,2.91
2022-11-24T00:11:33.893Z,2.66
2022-11-24T00:14:01.593Z,2.46
2022-11-24T00:16:31.229Z,2.29
2022-11-24T00:19:00.230Z,2.21
2022-11-24T00:21:30.738Z,2.52
2022-11-24T00:23:58.045Z,2.86
2022-11-24T00:26:33.729Z,2.63
2022-11-24T00:29:04.551Z,2.79
2022-11-24T00:31:33.933Z,2.93
2022-11-24T00:34:04.688Z,3.07
2022-11-24T00:36:34.748Z,3.08
2022-11-24T00:39:12.372Z,3.03
2022-11-24T00:41:39.602Z,2.99
2022-11-24T00:44:06.751Z,2.99
2022-11-24T00:46:34.783Z,2.81
2022-11-24T00:49:01.890Z,2.50
2022-11-24T00:51:30.246Z,2.59
2022-11-24T00:53:58.583Z,2.29
2022-11-24T00:56:26.970Z,2.52
2022-11-24T00:58:53.830Z,2.51
2022-11-24T01:01:26.859Z,2.59
2022-11-24T01:03:55.358Z,2.76
2022-11-24T01:06:25.822Z,2.73
2022-11-24T01:08:53.262Z,2.66
2022-11-24T01:11:26.728Z,2.35
2022-11-24T01:13:58.567Z,2.58
2022-11-24T01:16:33.531Z,2.39
2022-11-24T01:19:01.336Z,2.14
2022-11-24T01:21:28.089Z,2.57
2022-11-24T01:23:54.966Z,2.65
2022-11-24T01:26:22.599Z,2.63
2022-11-24T01:28:55.308Z,2.76
2022-11-24T01:31:23.068Z,2.55
2022-11-24T01:33:50.325Z,2.23
2022-11-24T01:36:17.543Z,1.70
2022-11-24T01:38:44.320Z,1.60
2022-11-24T01:41:11.986Z,1.67
2022-11-24T01:43:40.011Z,1.94
2022-11-24T01:46:30.238Z,1.86
2022-11-24T01:49:18.192Z,1.64
2022-11-24T01:52:10.108Z,1.82
2022-11-24T01:54:52.684Z,2.01
2022-11-24T01:57:44.820Z,1.82
2022-11-24T02:00:14.635Z,2.03
2022-11-24T02:02:44.516Z,1.71
2022-11-24T02:05:23.330Z,1.36
2022-11-24T02:07:52.256Z,0.76
2022-11-24T02:10:18.991Z,1.30
2022-11-24T02:12:50.812Z,1.45
2022-11-24T02:15:18.839Z,1.83
2022-11-24T02:17:45.661Z,1.52
2022-11-24T02:20:14.601Z,1.83
2022-11-24T02:23:08.963Z,1.75
2022-11-24T02:26:07.880Z,1.73
2022-11-24T02:28:34.710Z,1.93
2022-11-24T02:31:03.163Z,1.91
2022-11-24T02:33:30.557Z,1.47
2022-11-24T02:35:57.458Z,1.69
2022-11-24T02:38:35.711Z,1.93
2022-11-24T02:41:11.712Z,2.07
2022-11-24T02:43:48.783Z,1.94
2022-11-24T02:46:15.575Z,2.15
2022-11-24T02:48:42.323Z,2.20
2022-11-24T02:51:09.416Z,2.08
2022-11-24T02:53:36.170Z,2.18
2022-11-24T02:56:03.468Z,2.36
2022-11-24T02:58:30.200Z,1.95
2022-11-24T03:00:58.034Z,1.32
2022-11-24T03:03:25.144Z,1.81
2022-11-24T03:05:52.091Z,1.86
2022-11-24T03:08:18.988Z,1.70
2022-11-24T03:10:45.782Z,1.37
2022-11-24T03:13:12.530Z,1.40
2022-11-24T03:15:39.363Z,1.84
2022-11-24T03:18:06.360Z,2.18
2022-11-24T03:20:33.309Z,2.34
2022-11-24T03:23:00.051Z,2.45
2022-11-24T03:25:26.816Z,2.53
2022-11-24T03:27:55.578Z,2.28
2022-11-24T03:30:22.306Z,2.32
2022-11-24T03:32:53.506Z,2.52
2022-11-24T03:35:21.925Z,2.39
2022-11-24T03:37:48.705Z,2.51
2022-11-24T03:40:17.894Z,2.63
2022-11-24T03:42:44.811Z,2.70
2022-11-24T03:45:37.915Z,2.73
2022-11-24T03:47:58.435Z,2.64
2022-11-24T03:50:25.245Z,2.45
2022-11-24T03:52:52.032Z,2.31
2022-11-24T03:55:18.867Z,2.55
2022-11-24T03:57:45.624Z,2.57
2022-11-24T04:00:12.720Z,2.30
2022-11-24T04:02:39.561Z,2.15
2022-11-24T04:05:07.443Z,2.56
2022-11-24T04:07:34.212Z,2.60
2022-11-24T04:10:01.015Z,2.56
2022-11-24T04:12:45.896Z,2.31
2022-11-24T04:15:18.868Z,2.25
2022-11-24T04:17:48.341Z,2.33
2022-11-24T04:20:16.510Z,2.48
2022-11-24T04:22:43.624Z,2.54
2022-11-24T04:25:11.253Z,2.59
2022-11-24T04:27:38.621Z,2.62
2022-11-24T04:30:07.199Z,2.67
2022-11-24T04:32:33.918Z,2.70
2022-11-24T04:35:00.685Z,2.71
2022-11-24T04:37:27.443Z,2.70
2022-11-24T04:39:55.151Z,2.75
2022-11-24T04:42:22.000Z,2.52
2022-11-24T04:44:48.744Z,2.68
2022-11-24T04:47:22.311Z,2.73
2022-11-24T04:49:50.005Z,2.81
2022-11-24T04:52:19.519Z,2.81
2022-11-24T04:54:47.586Z,2.68
2022-11-24T04:57:21.015Z,2.65
2022-11-24T04:59:48.595Z,2.81
2022-11-24T05:02:15.296Z,2.91
2022-11-24T05:04:42.288Z,2.96
2022-11-24T05:07:18.791Z,2.80
2022-11-24T05:10:05.711Z,2.86
2022-11-24T05:12:32.559Z,2.91
2022-11-24T05:15:01.209Z,3.12
2022-11-24T05:17:37.454Z,3.09
2022-11-24T05:20:06.807Z,3.24
2022-11-24T05:22:33.641Z,3.23
2022-11-24T05:25:00.339Z,3.02
2022-11-24T05:27:27.421Z,3.28
2022-11-24T05:29:54.114Z,3.13
2022-11-24T05:32:20.900Z,3.33
2022-11-24T05:34:47.924Z,3.14
2022-11-24T05:37:14.651Z,3.27
2022-11-24T05:39:41.323Z,2.99
2022-11-24T05:42:27.399Z,3.07
2022-11-24T05:44:54.342Z,3.21
2022-11-24T05:47:21.926Z,3.41
2022-11-24T05:49:48.708Z,3.49
2022-11-24T05:52:16.761Z,3.42
2022-11-24T05:54:43.642Z,3.55
2022-11-24T05:57:10.337Z,3.79
2022-11-24T05:59:37.226Z,3.25
2022-11-24T06:02:04.049Z,3.18
2022-11-24T06:04:31.931Z,3.04
2022-11-24T06:06:58.954Z,3.27
2022-11-24T06:09:25.609Z,3.37
2022-11-24T06:11:52.262Z,3.48
2022-11-24T06:14:18.936Z,3.54
2022-11-24T06:16:45.696Z,3.53
2022-11-24T06:19:12.518Z,3.47
2022-11-24T06:21:39.278Z,3.05
2022-11-24T06:24:06.681Z,3.56
2022-11-24T06:26:33.599Z,3.50
2022-11-24T06:29:00.377Z,3.49
2022-11-24T06:31:27.374Z,3.60
2022-11-24T06:33:54.218Z,3.30
2022-11-24T06:36:20.909Z,3.57
2022-11-24T06:38:47.620Z,3.48
2022-11-24T06:41:16.002Z,3.43
2022-11-24T06:43:43.203Z,3.40
2022-11-24T06:46:10.382Z,3.40
2022-11-24T06:48:37.786Z,2.84
2022-11-24T06:51:08.028Z,3.01
2022-11-24T06:53:38.128Z,3.02
2022-11-24T06:56:16.407Z,3.24
2022-11-24T06:58:47.231Z,3.11
2022-11-24T07:01:23.189Z,3.33
2022-11-24T07:03:51.244Z,3.43
2022-11-24T07:06:19.288Z,3.13
2022-11-24T07:08:46.688Z,3.30
2022-11-24T07:11:21.292Z,3.69
2022-11-24T07:13:48.544Z,3.85
2022-11-24T07:16:21.739Z,3.34
2022-11-24T07:18:51.267Z,3.32
2022-11-24T07:21:20.300Z,3.92
2022-11-24T07:23:51.612Z,3.34
2022-11-24T07:26:19.083Z,3.29
2022-11-24T07:28:46.442Z,3.76
2022-11-24T07:31:16.267Z,3.88
2022-11-24T07:33:42.944Z,4.10
2022-11-24T07:36:09.929Z,4.24
2022-11-24T07:38:36.824Z,4.31
2022-11-24T07:41:09.659Z,4.10
2022-11-24T07:43:37.906Z,3.89
2022-11-24T07:46:06.441Z,3.91
2022-11-24T07:48:34.383Z,4.48
2022-11-24T07:51:03.138Z,4.64
2022-11-24T07:53:31.032Z,4.75
2022-11-24T07:56:02.394Z,4.72
2022-11-24T07:58:32.823Z,4.33
2022-11-24T08:01:00.473Z,4.57
2022-11-24T08:03:27.547Z,4.88
2022-11-24T08:06:23.189Z,4.83
2022-11-24T08:08:47.231Z,4.89
2022-11-24T08:11:17.351Z,4.86
2022-11-24T08:13:44.353Z,4.65
2022-11-24T08:16:14.851Z,4.50
2022-11-24T08:18:42.775Z,4.39
2022-11-24T08:21:13.886Z,4.64
2022-11-24T08:23:41.325Z,4.77
2022-11-24T08:26:16.644Z,4.14
2022-11-24T08:28:45.594Z,4.45
2022-11-24T08:31:16.724Z,4.61
2022-11-24T08:33:43.418Z,4.73
2022-11-24T08:36:13.534Z,4.86
2022-11-24T08:38:41.104Z,4.38
2022-11-24T08:41:11.583Z,4.46
2022-11-24T08:43:39.606Z,4.52
2022-11-24T08:46:12.384Z,4.09
2022-11-24T08:48:39.942Z,4.45
2022-11-24T08:51:13.682Z,4.61
2022-11-24T08:53:41.632Z,4.81
2022-11-24T08:56:10.561Z,4.82
2022-11-24T08:58:38.470Z,4.91
2022-11-24T09:01:13.453Z,4.46
2022-11-24T09:03:48.235Z,4.87
2022-11-24T09:06:25.407Z,4.91
2022-11-24T09:08:54.533Z,4.77
2022-11-24T09:11:22.223Z,4.96
2022-11-24T09:13:49.369Z,5.03
2022-11-24T09:16:25.772Z,4.82
2022-11-24T09:19:10.774Z,4.96
2022-11-24T09:21:38.845Z,4.80
2022-11-24T09:24:10.301Z,5.04
2022-11-24T09:26:41.889Z,4.69
2022-11-24T09:29:13.613Z,5.45
2022-11-24T09:31:41.019Z,5.44
2022-11-24T09:34:13.075Z,5.78
2022-11-24T09:36:40.011Z,5.52
2022-11-24T09:39:07.015Z,5.34
2022-11-24T09:42:14.229Z,6.09
2022-11-24T09:45:08.334Z,6.35
2022-11-24T09:48:01.478Z,6.21
2022-11-24T09:50:37.578Z,6.09
2022-11-24T09:53:22.923Z,6.27
2022-11-24T09:55:58.422Z,6.30
2022-11-24T09:58:40.958Z,6.42
2022-11-24T10:01:30.773Z,6.55
2022-11-24T10:04:04.254Z,6.45
2022-11-24T10:06:48.018Z,6.22
2022-11-24T10:09:40.093Z,6.55
2022-11-24T10:12:47.599Z,6.66
2022-11-24T10:15:34.173Z,6.88
2022-11-24T10:18:50.400Z,6.82
2022-11-24T10:21:41.581Z,7.07
2022-11-24T10:24:59.551Z,7.19
2022-11-24T10:27:38.667Z,6.97
2022-11-24T10:30:21.774Z,7.06
2022-11-24T10:33:06.147Z,6.99
2022-11-24T10:36:02.794Z,7.03
2022-11-24T10:38:37.900Z,6.66
2022-11-24T10:41:10.944Z,7.18
2022-11-24T10:43:40.321Z,7.24
2022-11-24T10:46:39.516Z,7.40
2022-11-24T10:49:06.489Z,7.50
2022-11-24T10:51:41.675Z,7.54
2022-11-24T10:54:22.289Z,7.35
2022-11-24T10:56:52.931Z,7.40
2022-11-24T10:59:25.346Z,6.91
2022-11-24T11:01:53.091Z,7.12
2022-11-24T11:04:34.820Z,7.23
2022-11-24T11:07:21.217Z,7.28
2022-11-24T11:09:48.621Z,7.05
2022-11-24T11:15:29.768Z,7.67
2022-11-24T11:18:01.762Z,7.88
2022-11-24T11:20:32.976Z,7.54
2022-11-24T11:23:16.764Z,7.91
2022-11-24T11:25:43.914Z,7.93
2022-11-24T11:28:30.895Z,8.03
2022-11-24T11:31:17.229Z,8.25
2022-11-24T11:34:06.296Z,8.51
2022-11-24T11:36:46.346Z,8.37
2022-11-24T11:39:32.757Z,8.69
2022-11-24T11:43:03.652Z,8.64
2022-11-24T11:45:31.852Z,8.27
2022-11-24T11:48:01.387Z,8.57
2022-11-24T11:51:21.843Z,8.82
2022-11-24T11:54:08.086Z,8.62
2022-11-24T11:56:45.007Z,8.82
2022-11-24T11:59:33.347Z,8.81
2022-11-24T12:02:32.333Z,8.96
2022-11-24T12:05:10.831Z,9.02
2022-11-24T12:07:56.633Z,8.88
2022-11-24T12:10:48.130Z,8.87
2022-11-24T12:13:36.083Z,8.92
2022-11-24T12:16:35.770Z,8.93
2022-11-24T12:19:39.803Z,8.38
2022-11-24T12:22:16.991Z,8.68
2022-11-24T12:25:09.778Z,7.47
2022-11-24T12:28:18.587Z,8.51
2022-11-24T12:31:06.493Z,8.69
2022-11-24T12:34:15.089Z,8.86
2022-11-24T12:37:19.789Z,8.94
2022-11-24T12:40:16.253Z,9.00
2022-11-24T12:43:02.353Z,8.82
2022-11-24T12:46:11.186Z,9.07
2022-11-24T12:49:02.693Z,8.49
2022-11-24T12:51:39.720Z,9.07
2022-11-24T12:54:14.365Z,9.23
2022-11-24T12:57:02.296Z,8.89
2022-11-24T12:59:35.122Z,8.97
2022-11-24T13:02:37.288Z,8.85
2022-11-24T13:05:33.099Z,9.27
2022-11-24T13:08:03.288Z,9.34
2022-11-24T13:10:57.877Z,9.24
2022-11-24T13:13:48.188Z,9.32
2022-11-24T13:19:13.650Z,9.81
2022-11-24T13:21:40.327Z,10.08
2022-11-24T13:24:25.401Z,10.10
2022-11-24T13:27:14.084Z,10.17
2022-11-24T13:29:51.660Z,10.28
2022-11-24T13:32:18.481Z,10.13
2022-11-24T13:34:54.911Z,10.29
2022-11-24T13:37:33.974Z,9.94
2022-11-24T13:40:31.701Z,9.93
2022-11-24T13:43:00.349Z,10.01
2022-11-24T13:45:39.680Z,9.82
2022-11-24T13:48:22.487Z,9.95
2022-11-24T13:50:49.509Z,9.74
2022-11-24T13:53:22.287Z,9.66
2022-11-24T13:56:25.015Z,9.75
2022-11-24T13:59:17.137Z,9.80
2022-11-24T14:01:46.712Z,9.80
2022-11-24T14:04:33.844Z,9.52
2022-11-24T14:07:11.891Z,9.65
2022-11-24T14:09:51.912Z,9.65
2022-11-24T14:12:26.587Z,9.44
2022-11-24T14:14:57.475Z,9.45
2022-11-24T14:17:28.374Z,9.40
2022-11-24T14:19:57.758Z,9.29
2022-11-24T14:22:40.289Z,9.29
2022-11-24T14:25:29.855Z,9.02
2022-11-24T14:27:57.384Z,9.24
2022-11-24T14:30:26.242Z,8.95
2022-11-24T14:32:58.089Z,9.08
2022-11-24T14:35:34.616Z,9.07
2022-11-24T14:38:03.731Z,8.92
2022-11-24T14:40:46.600Z,9.01
2022-11-24T14:43:29.257Z,8.86
2022-11-24T14:46:18.365Z,9.00
2022-11-24T14:48:51.471Z,8.97
2022-11-24T14:51:23.920Z,8.92
2022-11-24T14:53:55.171Z,8.88
2022-11-24T14:56:25.973Z,8.78
2022-11-24T14:58:54.486Z,8.71
2022-11-24T15:01:27.534Z,8.38
2022-11-24T15:04:39.361Z,8.45
2022-11-24T15:07:21.751Z,8.33
2022-11-24T15:09:53.903Z,8.35
2022-11-24T15:12:41.334Z,8.35
2022-11-24T15:15:14.004Z,8.36
2022-11-24T15:17:53.213Z,8.30
2022-11-24T15:20:37.444Z,8.36
2022-11-24T15:23:28.040Z,8.30
2022-11-24T15:25:57.314Z,8.26
2022-11-24T15:28:27.765Z,8.47
2022-11-24T15:30:59.247Z,8.43
2022-11-24T15:33:26.476Z,8.39
2022-11-24T15:35:53.125Z,8.39
2022-11-24T15:38:20.011Z,8.40
2022-11-24T15:40:50.592Z,8.46
2022-11-24T15:43:43.539Z,8.42
2022-11-24T15:46:10.503Z,8.31
2022-11-24T15:48:37.640Z,8.09
2022-11-24T15:51:14.939Z,8.17
2022-11-24T15:53:49.937Z,8.21
2022-11-24T15:56:33.835Z,8.03
2022-11-24T15:59:01.799Z,8.18
2022-11-24T16:01:34.259Z,8.18
2022-11-24T16:04:01.826Z,7.97
2022-11-24T16:06:28.603Z,7.69
2022-11-24T16:08:55.421Z,7.86
2022-11-24T16:11:23.159Z,8.24
2022-11-24T16:13:53.228Z,8.27
2022-11-24T16:16:23.581Z,8.14
2022-11-24T16:18:50.753Z,7.52
2022-11-24T16:21:17.773Z,8.20
2022-11-24T16:23:45.518Z,8.27
2022-11-24T16:26:12.285Z,8.29
2022-11-24T16:28:39.151Z,8.36
2022-11-24T16:31:06.046Z,7.90
2022-11-24T16:33:32.710Z,8.32
2022-11-24T16:35:59.450Z,8.26
2022-11-24T16:38:26.189Z,8.23
2022-11-24T16:40:56.241Z,8.44
2022-11-24T16:43:24.299Z,8.52
2022-11-24T16:46:15.969Z,8.16
2022-11-24T16:48:44.453Z,8.35
2022-11-24T16:51:12.356Z,8.02
2022-11-24T16:53:39.791Z,7.95
2022-11-24T16:56:07.305Z,7.63
2022-11-24T16:58:37.331Z,8.13
2022-11-24T17:01:07.598Z,8.02
2022-11-24T17:03:37.854Z,8.19
2022-11-24T17:06:07.549Z,8.34
2022-11-24T17:08:36.398Z,8.53
2022-11-24T17:11:13.986Z,8.46
2022-11-24T17:13:41.230Z,8.44
2022-11-24T17:16:11.869Z,8.43
2022-11-24T17:18:39.163Z,8.38
2022-11-24T17:21:10.869Z,8.39
2022-11-24T17:23:38.081Z,8.69
2022-11-24T17:26:12.425Z,8.73
2022-11-24T17:28:39.632Z,8.69
2022-11-24T17:31:17.906Z,8.65
2022-11-24T17:33:44.722Z,8.71
2022-11-24T17:36:11.429Z,8.60
2022-11-24T17:38:38.152Z,8.55
2022-11-24T17:41:05.192Z,8.54
2022-11-24T17:43:32.700Z,8.32
2022-11-24T17:46:03.001Z,8.12
2022-11-24T17:48:31.538Z,8.03
2022-11-24T17:51:10.264Z,8.06
2022-11-24T17:53:37.531Z,7.98
2022-11-24T17:56:04.764Z,8.00
2022-11-24T17:58:37.176Z,7.93
2022-11-24T18:01:07.743Z,7.74
2022-11-24T18:03:34.514Z,7.78
2022-11-24T18:06:19.833Z,7.55
2022-11-24T18:08:47.274Z,7.40
2022-11-24T18:11:24.643Z,7.42
2022-11-24T18:14:00.205Z,7.52
2022-11-24T18:16:29.652Z,7.61
2022-11-24T18:19:08.272Z,7.50
2022-11-24T18:21:37.921Z,7.50
2022-11-24T18:24:04.863Z,7.45
2022-11-24T18:26:31.585Z,7.08
2022-11-24T18:28:58.273Z,7.04
2022-11-24T18:31:26.147Z,7.15
2022-11-24T18:33:52.940Z,7.02
2022-11-24T18:36:23.579Z,6.52
2022-11-24T18:38:53.885Z,6.74
2022-11-24T18:41:21.514Z,6.93
2022-11-24T18:43:49.026Z,6.58
2022-11-24T18:46:19.342Z,6.52
2022-11-24T18:48:46.149Z,6.73
2022-11-24T18:51:14.590Z,6.68
2022-11-24T18:53:43.378Z,6.57
2022-11-24T18:56:16.642Z,6.62
2022-11-24T18:58:44.546Z,6.62
2022-11-24T19:01:20.348Z,6.38
2022-11-24T19:03:50.805Z,6.41
2022-11-24T19:06:28.939Z,6.40
2022-11-24T19:08:56.059Z,6.30
2022-11-24T19:11:29.625Z,6.30
2022-11-24T19:13:56.600Z,6.08
2022-11-24T19:16:24.390Z,6.16
2022-11-24T19:18:54.363Z,6.02
2022-11-24T19:21:22.903Z,6.19
2022-11-24T19:23:50.024Z,6.23
2022-11-24T19:26:17.374Z,6.15
2022-11-24T19:28:44.655Z,6.08
2022-11-24T19:31:14.503Z,6.15
2022-11-24T19:33:42.607Z,6.19
2022-11-24T19:36:16.355Z,6.12
2022-11-24T19:38:49.870Z,6.09
2022-11-24T19:41:19.389Z,6.13
2022-11-24T19:43:47.177Z,6.01
2022-11-24T19:46:17.726Z,5.99
2022-11-24T19:48:47.147Z,5.62
2022-11-24T19:51:17.354Z,5.44
2022-11-24T19:53:45.159Z,5.77
2022-11-24T19:56:22.386Z,6.01
2022-11-24T19:58:51.072Z,6.09
2022-11-24T20:01:30.153Z,6.31
2022-11-24T20:04:02.832Z,5.97
2022-11-24T20:06:41.952Z,6.19
2022-11-24T20:09:12.913Z,6.45
2022-11-24T20:11:39.949Z,6.30
2022-11-24T20:14:09.880Z,6.44
2022-11-24T20:16:36.872Z,6.64
2022-11-24T20:19:11.661Z,6.67
2022-11-24T20:21:41.412Z,6.68
2022-11-24T20:24:13.826Z,6.76
2022-11-24T20:26:51.250Z,6.84
2022-11-24T20:29:18.846Z,6.73
2022-11-24T20:31:49.538Z,6.67
2022-11-24T20:34:17.435Z,6.78
2022-11-24T20:36:46.026Z,6.53
2022-11-24T20:39:21.663Z,6.71
2022-11-24T20:41:48.629Z,6.87
2022-11-24T20:44:18.294Z,7.07
2022-11-24T20:46:46.548Z,6.93
2022-11-24T20:49:17.320Z,6.69
2022-11-24T20:51:46.869Z,7.10
2022-11-24T20:54:16.835Z,6.83
2022-11-24T20:56:44.622Z,7.18
2022-11-24T20:59:15.756Z,7.42
2022-11-24T21:01:45.387Z,7.54
2022-11-24T21:04:20.438Z,7.20
2022-11-24T21:06:47.784Z,7.32
2022-11-24T21:09:14.536Z,7.52
2022-11-24T21:11:41.371Z,7.62
2022-11-24T21:14:08.736Z,7.67
2022-11-24T21:16:38.998Z,7.71
2022-11-24T21:19:14.064Z,7.68
2022-11-24T21:21:42.467Z,7.72
2022-11-24T21:24:18.049Z,7.58
2022-11-24T21:26:50.327Z,7.64
2022-11-24T21:29:19.163Z,7.71
2022-11-24T21:31:46.223Z,7.64
2022-11-24T21:34:18.545Z,7.30
2022-11-24T21:36:45.394Z,7.50
2022-11-24T21:39:14.287Z,7.81
2022-11-24T21:41:41.867Z,7.77
2022-11-24T21:44:10.372Z,7.89
2022-11-24T21:46:43.929Z,8.04
2022-11-24T21:49:13.193Z,8.07
2022-11-24T21:51:39.993Z,8.17
2022-11-24T21:54:06.949Z,8.18
2022-11-24T21:56:33.632Z,8.07
2022-11-24T21:59:00.310Z,7.98
2022-11-24T22:01:28.725Z,7.95
2022-11-24T22:03:55.912Z,7.94
2022-11-24T22:06:23.268Z,7.89
2022-11-24T22:08:50.150Z,7.92
2022-11-24T22:11:23.675Z,7.90
2022-11-24T22:13:51.441Z,7.85
2022-11-24T22:16:21.306Z,7.85
2022-11-24T22:18:49.013Z,7.91
2022-11-24T22:21:19.697Z,7.93
2022-11-24T22:23:50.024Z,7.84
2022-11-24T22:26:20.770Z,7.88
2022-11-24T22:28:48.198Z,8.06
2022-11-24T22:31:22.235Z,8.10
2022-11-24T22:33:50.232Z,8.04
2022-11-24T22:36:20.740Z,8.18
2022-11-24T22:38:52.433Z,8.23
2022-11-24T22:41:19.094Z,8.14
2022-11-24T22:43:46.306Z,8.25
2022-11-24T22:46:18.985Z,8.30
2022-11-24T22:48:47.772Z,8.24
2022-11-24T22:51:24.868Z,8.27
2022-11-24T22:53:54.958Z,8.29
2022-11-24T22:56:22.307Z,8.33
2022-11-24T22:58:49.724Z,8.39
2022-11-24T23:01:24.342Z,8.16
2022-11-24T23:03:54.308Z,8.02
2022-11-24T23:06:27.068Z,8.23
2022-11-24T23:08:55.413Z,8.36
2022-11-24T23:11:31.595Z,8.42
2022-11-24T23:14:02.927Z,8.35
2022-11-24T23:16:30.116Z,8.55
2022-11-24T23:18:57.439Z,8.54
2022-11-24T23:21:28.282Z,8.43
2022-11-24T23:23:55.853Z,8.55
2022-11-24T23:26:32.616Z,8.57
2022-11-24T23:28:59.897Z,8.47
2022-11-24T23:31:28.782Z,8.22
2022-11-24T23:34:01.988Z,8.06
2022-11-24T23:36:30.435Z,8.25
2022-11-24T23:39:03.272Z,8.23
2022-11-24T23:41:31.427Z,8.22
2022-11-24T23:43:58.888Z,8.16
2022-11-24T23:46:27.207Z,8.12
2022-11-24T23:48:55.546Z,8.04
2022-11-24T23:51:32.216Z,7.98
2022-11-24T23:54:00.201Z,7.62
2022-11-24T23:56:33.094Z,7.93
2022-11-24T23:59:02.322Z,7.89
